Hayward, South Dakota
Current Conditions -  °F | °C
As of 8:11 AM on Friday 31 Oct 2014 (Local Time) from KRAP Reporting Station
Haze Haze  
Wind Chill: 18°   Ceiling: 200
Heat Index: 30°   Visibility: 3mi
Dew Point: 28°   Wind: 18mph
Humidity: 92%   Direction: 180°S
Pressure: 30.37"   Gusts: 25mph
Location:  43.7793°N, 103.069°W
Report Text: KRAP 311411Z 18016G22KT 3SM BR OVC002 M01/M02 A3037 RMK AO2 T10111022
Loading
Personal Weather Stations






























Interactive Weather Map
Tropical Storm Tracking
New forecast layout! Learn more

10-Day Weather Forecast

Advertisements
Track Severe Weather on mobile